sensor_id;sensor_type;location;lat;lon;timestamp;pressure;altitude;pressure_sealevel;temperature;humidity
77077;BME280;66003;52.286;104.306;2023-06-14T00:01:08;95782.38;;;34.00;23.06
77077;BME280;66003;52.286;104.306;2023-06-14T00:03:35;95752.94;;;35.90;20.97
77077;BME280;66003;52.286;104.306;2023-06-14T00:06:02;95786.34;;;37.81;18.94
77077;BME280;66003;52.286;104.306;2023-06-14T00:08:28;95772.06;;;37.88;18.56
77077;BME280;66003;52.286;104.306;2023-06-14T00:10:54;95772.94;;;38.75;18.33
77077;BME280;66003;52.286;104.306;2023-06-14T00:13:20;95778.59;;;40.08;17.13
77077;BME280;66003;52.286;104.306;2023-06-14T00:15:46;95767.22;;;40.92;16.23
77077;BME280;66003;52.286;104.306;2023-06-14T00:18:13;95773.97;;;40.80;16.32
77077;BME280;66003;52.286;104.306;2023-06-14T00:20:41;95766.13;;;41.30;15.45
77077;BME280;66003;52.286;104.306;2023-06-14T00:23:08;95762.53;;;41.09;16.06
77077;BME280;66003;52.286;104.306;2023-06-14T00:25:34;95758.88;;;41.81;15.58
77077;BME280;66003;52.286;104.306;2023-06-14T00:28:01;95758.34;;;42.14;15.04
77077;BME280;66003;52.286;104.306;2023-06-14T00:30:27;95772.31;;;42.99;14.98
77077;BME280;66003;52.286;104.306;2023-06-14T00:32:58;95749.38;;;43.68;13.79
77077;BME280;66003;52.286;104.306;2023-06-14T00:35:25;95756.81;;;43.99;13.70
77077;BME280;66003;52.286;104.306;2023-06-14T00:37:51;95741.44;;;43.94;13.71
77077;BME280;66003;52.286;104.306;2023-06-14T00:40:18;95731.19;;;44.13;13.96
77077;BME280;66003;52.286;104.306;2023-06-14T00:42:45;95749.97;;;44.69;13.05
77077;BME280;66003;52.286;104.306;2023-06-14T00:45:12;95743.00;;;44.81;13.35
77077;BME280;66003;52.286;104.306;2023-06-14T00:47:41;95744.09;;;45.54;12.75
77077;BME280;66003;52.286;104.306;2023-06-14T00:50:09;95749.25;;;45.80;12.47
77077;BME280;66003;52.286;104.306;2023-06-14T00:52:36;95724.94;;;46.26;12.10
77077;BME280;66003;52.286;104.306;2023-06-14T00:55:02;95718.22;;;46.72;11.80
77077;BME280;66003;52.286;104.306;2023-06-14T00:57:32;95720.66;;;46.81;12.10
77077;BME280;66003;52.286;104.306;2023-06-14T00:59:58;95733.28;;;46.80;11.90
77077;BME280;66003;52.286;104.306;2023-06-14T01:02:24;95713.19;;;46.41;12.01
77077;BME280;66003;52.286;104.306;2023-06-14T01:04:51;95711.97;;;46.36;12.37
77077;BME280;66003;52.286;104.306;2023-06-14T01:07:54;95693.91;;;47.01;12.07
77077;BME280;66003;52.286;104.306;2023-06-14T01:10:39;95705.84;;;46.51;12.14
77077;BME280;66003;52.286;104.306;2023-06-14T01:13:12;95684.13;;;46.64;12.67
77077;BME280;66003;52.286;104.306;2023-06-14T01:15:43;95689.25;;;46.85;12.15
77077;BME280;66003;52.286;104.306;2023-06-14T01:18:10;95694.19;;;47.16;11.80
77077;BME280;66003;52.286;104.306;2023-06-14T01:20:47;95680.47;;;47.97;11.17
77077;BME280;66003;52.286;104.306;2023-06-14T01:23:17;95684.72;;;48.57;10.46
77077;BME280;66003;52.286;104.306;2023-06-14T01:25:44;95678.16;;;47.83;11.37
77077;BME280;66003;52.286;104.306;2023-06-14T01:28:11;95664.75;;;47.96;10.96
77077;BME280;66003;52.286;104.306;2023-06-14T01:30:52;95654.31;;;48.18;11.12
77077;BME280;66003;52.286;104.306;2023-06-14T01:33:24;95671.41;;;47.86;11.67
77077;BME280;66003;52.286;104.306;2023-06-14T01:35:53;95658.72;;;46.96;11.91
77077;BME280;66003;52.286;104.306;2023-06-14T01:38:26;95651.00;;;47.29;12.04
77077;BME280;66003;52.286;104.306;2023-06-14T01:40:55;95640.91;;;47.78;11.47
77077;BME280;66003;52.286;104.306;2023-06-14T01:43:24;95653.28;;;48.41;10.95
77077;BME280;66003;52.286;104.306;2023-06-14T01:45:51;95633.91;;;48.32;10.63
77077;BME280;66003;52.286;104.306;2023-06-14T01:48:19;95620.63;;;47.74;11.12
77077;BME280;66003;52.286;104.306;2023-06-14T01:50:45;95626.56;;;47.58;11.23
77077;BME280;66003;52.286;104.306;2023-06-14T01:53:12;95627.44;;;46.89;11.88
77077;BME280;66003;52.286;104.306;2023-06-14T01:55:38;95619.38;;;47.57;11.31
77077;BME280;66003;52.286;104.306;2023-06-14T01:58:10;95610.69;;;48.81;10.57
77077;BME280;66003;52.286;104.306;2023-06-14T02:00:36;95604.25;;;48.80;10.48
77077;BME280;66003;52.286;104.306;2023-06-14T02:03:02;95598.00;;;48.48;11.09
77077;BME280;66003;52.286;104.306;2023-06-14T02:05:31;95585.09;;;48.60;10.75
77077;BME280;66003;52.286;104.306;2023-06-14T02:07:58;95588.56;;;48.19;10.80
77077;BME280;66003;52.286;104.306;2023-06-14T02:10:24;95588.19;;;48.49;10.80
77077;BME280;66003;52.286;104.306;2023-06-14T02:12:50;95599.22;;;49.28;10.63
77077;BME280;66003;52.286;104.306;2023-06-14T02:15:17;95593.91;;;49.11;10.28
77077;BME280;66003;52.286;104.306;2023-06-14T02:17:48;95579.19;;;48.92;10.39
77077;BME280;66003;52.286;104.306;2023-06-14T02:20:15;95582.41;;;48.75;10.59
77077;BME280;66003;52.286;104.306;2023-06-14T02:22:41;95555.94;;;48.26;10.48
77077;BME280;66003;52.286;104.306;2023-06-14T02:25:08;95540.84;;;47.44;10.69
77077;BME280;66003;52.286;104.306;2023-06-14T02:27:35;95540.28;;;47.32;10.72
77077;BME280;66003;52.286;104.306;2023-06-14T02:30:01;95542.91;;;47.83;10.59
77077;BME280;66003;52.286;104.306;2023-06-14T02:32:30;95545.88;;;47.77;11.25
77077;BME280;66003;52.286;104.306;2023-06-14T02:34:57;95540.91;;;48.04;10.87
77077;BME280;66003;52.286;104.306;2023-06-14T02:37:23;95531.91;;;47.66;10.82
77077;BME280;66003;52.286;104.306;2023-06-14T02:39:50;95531.53;;;47.17;11.16
77077;BME280;66003;52.286;104.306;2023-06-14T02:42:16;95535.81;;;46.60;11.70
77077;BME280;66003;52.286;104.306;2023-06-14T02:44:42;95525.69;;;46.32;11.42
77077;BME280;66003;52.286;104.306;2023-06-14T02:47:10;95511.63;;;46.27;11.90
77077;BME280;66003;52.286;104.306;2023-06-14T02:49:39;95528.13;;;46.23;11.90
77077;BME280;66003;52.286;104.306;2023-06-14T02:52:05;95517.31;;;45.65;11.87
77077;BME280;66003;52.286;104.306;2023-06-14T02:54:32;95499.41;;;44.07;12.58
77077;BME280;66003;52.286;104.306;2023-06-14T02:56:58;95487.66;;;41.35;14.13
77077;BME280;66003;52.286;104.306;2023-06-14T02:59:24;95486.69;;;38.03;17.05
77077;BME280;66003;52.286;104.306;2023-06-14T03:01:50;95484.22;;;35.37;19.47
77077;BME280;66003;52.286;104.306;2023-06-14T03:04:17;95478.75;;;33.26;21.80
77077;BME280;66003;52.286;104.306;2023-06-14T03:06:43;95461.81;;;32.10;23.30
77077;BME280;66003;52.286;104.306;2023-06-14T03:09:10;95450.34;;;30.80;24.34
77077;BME280;66003;52.286;104.306;2023-06-14T03:11:36;95465.03;;;29.65;25.66
77077;BME280;66003;52.286;104.306;2023-06-14T03:14:02;95450.00;;;28.84;27.12
77077;BME280;66003;52.286;104.306;2023-06-14T03:16:34;95469.66;;;28.82;27.12
77077;BME280;66003;52.286;104.306;2023-06-14T03:19:00;95450.28;;;28.66;27.07
77077;BME280;66003;52.286;104.306;2023-06-14T03:21:27;95443.13;;;27.88;28.28
77077;BME280;66003;52.286;104.306;2023-06-14T03:23:54;95462.59;;;28.00;27.20
77077;BME280;66003;52.286;104.306;2023-06-14T03:26:21;95426.41;;;27.11;28.28
77077;BME280;66003;52.286;104.306;2023-06-14T03:28:48;95439.34;;;27.07;29.01
77077;BME280;66003;52.286;104.306;2023-06-14T03:31:16;95431.22;;;27.00;28.75
77077;BME280;66003;52.286;104.306;2023-06-14T03:33:43;95419.09;;;26.97;28.77
77077;BME280;66003;52.286;104.306;2023-06-14T03:36:09;95419.41;;;27.03;28.75
77077;BME280;66003;52.286;104.306;2023-06-14T03:38:35;95413.06;;;27.13;27.65
77077;BME280;66003;52.286;104.306;2023-06-14T03:41:01;95398.31;;;26.55;28.48
77077;BME280;66003;52.286;104.306;2023-06-14T03:43:28;95382.09;;;26.71;28.51
77077;BME280;66003;52.286;104.306;2023-06-14T03:45:56;95396.38;;;26.96;28.50
77077;BME280;66003;52.286;104.306;2023-06-14T03:48:22;95381.09;;;26.95;28.22
77077;BME280;66003;52.286;104.306;2023-06-14T03:50:48;95386.56;;;26.99;27.92
77077;BME280;66003;52.286;104.306;2023-06-14T03:53:15;95359.66;;;26.83;28.06
77077;BME280;66003;52.286;104.306;2023-06-14T03:55:41;95368.63;;;26.87;27.52
77077;BME280;66003;52.286;104.306;2023-06-14T03:58:40;95357.25;;;26.89;28.17
77077;BME280;66003;52.286;104.306;2023-06-14T04:01:06;95371.38;;;26.87;27.87
77077;BME280;66003;52.286;104.306;2023-06-14T04:03:32;95333.34;;;26.52;28.55
77077;BME280;66003;52.286;104.306;2023-06-14T04:05:59;95339.00;;;26.75;28.85
77077;BME280;66003;52.286;104.306;2023-06-14T04:08:29;95326.50;;;26.71;28.00
77077;BME280;66003;52.286;104.306;2023-06-14T04:10:56;95349.88;;;26.82;27.70
77077;BME280;66003;52.286;104.306;2023-06-14T04:13:29;95336.13;;;26.86;28.49
77077;BME280;66003;52.286;104.306;2023-06-14T04:16:02;95322.34;;;26.93;27.83
77077;BME280;66003;52.286;104.306;2023-06-14T04:18:29;95307.53;;;26.87;26.92
77077;BME280;66003;52.286;104.306;2023-06-14T04:20:55;95325.47;;;26.91;26.65
77077;BME280;66003;52.286;104.306;2023-06-14T04:23:23;95304.56;;;26.71;26.34
77077;BME280;66003;52.286;104.306;2023-06-14T04:25:49;95306.19;;;26.65;26.33
77077;BME280;66003;52.286;104.306;2023-06-14T04:28:16;95239.47;;;26.03;26.30
77077;BME280;66003;52.286;104.306;2023-06-14T04:30:43;95280.22;;;26.39;26.16
77077;BME280;66003;52.286;104.306;2023-06-14T04:33:26;95292.13;;;27.00;25.59
77077;BME280;66003;52.286;104.306;2023-06-14T04:36:06;95273.47;;;26.84;25.44
77077;BME280;66003;52.286;104.306;2023-06-14T04:41:59;95249.59;;;26.81;26.37
77077;BME280;66003;52.286;104.306;2023-06-14T04:44:26;95242.22;;;26.78;26.08
77077;BME280;66003;52.286;104.306;2023-06-14T04:46:57;95237.00;;;26.87;25.91
77077;BME280;66003;52.286;104.306;2023-06-14T04:49:30;95250.28;;;26.92;25.38
77077;BME280;66003;52.286;104.306;2023-06-14T04:52:02;95235.53;;;26.79;26.42
77077;BME280;66003;52.286;104.306;2023-06-14T04:54:28;95239.94;;;27.04;25.71
77077;BME280;66003;52.286;104.306;2023-06-14T04:56:57;95249.41;;;27.29;25.55
77077;BME280;66003;52.286;104.306;2023-06-14T04:59:29;95238.25;;;27.40;25.57
77077;BME280;66003;52.286;104.306;2023-06-14T05:02:02;95234.66;;;27.20;25.65
77077;BME280;66003;52.286;104.306;2023-06-14T05:04:28;95212.38;;;27.14;26.10
77077;BME280;66003;52.286;104.306;2023-06-14T05:06:57;95189.19;;;27.19;25.54
77077;BME280;66003;52.286;104.306;2023-06-14T05:09:25;95216.44;;;27.33;25.85
77077;BME280;66003;52.286;104.306;2023-06-14T05:11:55;95203.13;;;27.31;25.38
77077;BME280;66003;52.286;104.306;2023-06-14T05:14:24;95198.97;;;27.47;25.42
77077;BME280;66003;52.286;104.306;2023-06-14T05:16:54;95182.31;;;27.34;25.09
77077;BME280;66003;52.286;104.306;2023-06-14T05:19:20;95198.38;;;27.36;25.44
77077;BME280;66003;52.286;104.306;2023-06-14T05:21:50;95168.47;;;27.41;25.21
77077;BME280;66003;52.286;104.306;2023-06-14T05:24:17;95166.75;;;27.51;25.23
77077;BME280;66003;52.286;104.306;2023-06-14T05:26:43;95168.63;;;27.81;24.07
77077;BME280;66003;52.286;104.306;2023-06-14T05:29:14;95161.97;;;27.58;24.96
77077;BME280;66003;52.286;104.306;2023-06-14T05:31:41;95163.22;;;27.50;24.94
77077;BME280;66003;52.286;104.306;2023-06-14T05:34:12;95140.69;;;27.62;25.30
77077;BME280;66003;52.286;104.306;2023-06-14T05:36:39;95106.66;;;27.60;25.05
77077;BME280;66003;52.286;104.306;2023-06-14T05:39:06;95137.03;;;27.73;25.31
77077;BME280;66003;52.286;104.306;2023-06-14T05:41:32;95129.84;;;27.79;24.49
77077;BME280;66003;52.286;104.306;2023-06-14T05:43:59;95116.41;;;27.84;24.38
77077;BME280;66003;52.286;104.306;2023-06-14T05:46:26;95063.72;;;27.46;24.85
77077;BME280;66003;52.286;104.306;2023-06-14T05:48:53;95122.06;;;27.74;24.59
77077;BME280;66003;52.286;104.306;2023-06-14T05:51:19;95100.19;;;27.47;24.95
77077;BME280;66003;52.286;104.306;2023-06-14T05:53:46;95097.81;;;27.72;24.32
77077;BME280;66003;52.286;104.306;2023-06-14T05:56:13;95091.94;;;27.70;24.68
77077;BME280;66003;52.286;104.306;2023-06-14T05:58:40;95070.88;;;27.63;24.67
77077;BME280;66003;52.286;104.306;2023-06-14T06:01:06;95033.00;;;27.31;25.39
77077;BME280;66003;52.286;104.306;2023-06-14T06:03:33;95066.72;;;27.55;25.09
77077;BME280;66003;52.286;104.306;2023-06-14T06:06:00;95073.94;;;27.89;24.93
77077;BME280;66003;52.286;104.306;2023-06-14T06:08:27;95054.28;;;27.90;24.61
77077;BME280;66003;52.286;104.306;2023-06-14T06:10:53;95041.75;;;27.89;24.61
77077;BME280;66003;52.286;104.306;2023-06-14T06:13:19;95061.06;;;28.06;24.75
77077;BME280;66003;52.286;104.306;2023-06-14T06:15:45;95028.81;;;27.90;24.52
77077;BME280;66003;52.286;104.306;2023-06-14T06:18:12;95046.31;;;28.19;24.24
77077;BME280;66003;52.286;104.306;2023-06-14T06:20:38;95044.31;;;28.20;24.47
77077;BME280;66003;52.286;104.306;2023-06-14T06:23:04;95042.00;;;28.18;23.33
77077;BME280;66003;52.286;104.306;2023-06-14T06:25:30;95035.50;;;28.28;23.67
77077;BME280;66003;52.286;104.306;2023-06-14T06:27:57;95034.13;;;28.36;24.20
77077;BME280;66003;52.286;104.306;2023-06-14T06:30:24;95027.38;;;28.41;24.32
77077;BME280;66003;52.286;104.306;2023-06-14T06:32:51;95024.84;;;28.11;24.42
77077;BME280;66003;52.286;104.306;2023-06-14T06:35:19;95004.44;;;28.31;24.24
77077;BME280;66003;52.286;104.306;2023-06-14T06:37:45;94970.78;;;27.88;24.94
77077;BME280;66003;52.286;104.306;2023-06-14T06:40:11;95003.41;;;28.42;24.26
77077;BME280;66003;52.286;104.306;2023-06-14T06:42:38;94990.00;;;28.08;24.39
77077;BME280;66003;52.286;104.306;2023-06-14T06:45:05;94957.66;;;28.15;24.07
77077;BME280;66003;52.286;104.306;2023-06-14T06:47:35;94975.72;;;28.32;23.99
77077;BME280;66003;52.286;104.306;2023-06-14T06:50:02;94963.97;;;28.12;24.35
77077;BME280;66003;52.286;104.306;2023-06-14T06:52:33;94970.91;;;28.20;24.46
77077;BME280;66003;52.286;104.306;2023-06-14T06:55:00;94968.78;;;28.44;24.21
77077;BME280;66003;52.286;104.306;2023-06-14T06:57:27;94956.84;;;28.34;24.30
77077;BME280;66003;52.286;104.306;2023-06-14T06:59:55;94958.56;;;28.45;25.06
77077;BME280;66003;52.286;104.306;2023-06-14T07:02:21;94939.97;;;28.16;24.46
77077;BME280;66003;52.286;104.306;2023-06-14T07:04:47;94890.78;;;27.86;24.28
77077;BME280;66003;52.286;104.306;2023-06-14T07:07:13;94869.22;;;28.04;24.22
77077;BME280;66003;52.286;104.306;2023-06-14T07:09:46;94936.50;;;28.48;24.17
77077;BME280;66003;52.286;104.306;2023-06-14T07:12:18;94912.69;;;28.25;24.26
77077;BME280;66003;52.286;104.306;2023-06-14T07:14:44;94920.44;;;28.63;23.21
77077;BME280;66003;52.286;104.306;2023-06-14T07:17:15;94919.50;;;28.53;22.91
77077;BME280;66003;52.286;104.306;2023-06-14T07:19:43;94914.94;;;28.63;22.76
77077;BME280;66003;52.286;104.306;2023-06-14T07:22:09;94912.97;;;28.31;22.86
77077;BME280;66003;52.286;104.306;2023-06-14T07:24:35;94895.28;;;28.32;23.07
77077;BME280;66003;52.286;104.306;2023-06-14T07:27:02;94874.56;;;28.27;23.38
77077;BME280;66003;52.286;104.306;2023-06-14T07:29:29;94884.97;;;28.36;22.06
77077;BME280;66003;52.286;104.306;2023-06-14T07:31:55;94858.94;;;28.24;21.28
77077;BME280;66003;52.286;104.306;2023-06-14T07:34:22;94867.03;;;28.31;22.28
77077;BME280;66003;52.286;104.306;2023-06-14T07:36:48;94851.44;;;28.57;21.27
77077;BME280;66003;52.286;104.306;2023-06-14T07:39:14;94872.16;;;28.46;21.97
77077;BME280;66003;52.286;104.306;2023-06-14T07:41:40;94857.97;;;28.63;22.79
77077;BME280;66003;52.286;104.306;2023-06-14T07:44:07;94863.91;;;28.62;22.84
77077;BME280;66003;52.286;104.306;2023-06-14T07:46:33;94863.81;;;28.65;21.98
77077;BME280;66003;52.286;104.306;2023-06-14T07:49:00;94846.72;;;28.74;22.08
77077;BME280;66003;52.286;104.306;2023-06-14T07:51:27;94795.59;;;28.31;21.27
77077;BME280;66003;52.286;104.306;2023-06-14T07:53:53;94840.44;;;28.73;21.34
77077;BME280;66003;52.286;104.306;2023-06-14T07:56:19;94844.31;;;28.76;21.32
77077;BME280;66003;52.286;104.306;2023-06-14T07:58:46;94808.78;;;28.53;21.09
77077;BME280;66003;52.286;104.306;2023-06-14T08:01:12;94827.97;;;28.85;20.83
77077;BME280;66003;52.286;104.306;2023-06-14T08:03:39;94830.03;;;28.81;19.90
77077;BME280;66003;52.286;104.306;2023-06-14T08:06:06;94818.19;;;28.68;20.04
77077;BME280;66003;52.286;104.306;2023-06-14T08:08:33;94806.47;;;28.51;20.41
77077;BME280;66003;52.286;104.306;2023-06-14T08:11:00;94796.84;;;28.43;19.95
77077;BME280;66003;52.286;104.306;2023-06-14T08:13:26;94799.31;;;28.54;19.55
77077;BME280;66003;52.286;104.306;2023-06-14T08:15:52;94815.69;;;28.73;18.97
77077;BME280;66003;52.286;104.306;2023-06-14T08:18:18;94801.06;;;28.77;19.21
77077;BME280;66003;52.286;104.306;2023-06-14T08:20:44;94720.19;;;28.16;17.49
77077;BME280;66003;52.286;104.306;2023-06-14T08:23:11;94784.94;;;28.79;17.83
77077;BME280;66003;52.286;104.306;2023-06-14T08:25:37;94795.22;;;28.74;17.88
77077;BME280;66003;52.286;104.306;2023-06-14T08:28:03;94797.81;;;28.82;18.58
77077;BME280;66003;52.286;104.306;2023-06-14T08:30:29;94793.69;;;28.90;19.30
77077;BME280;66003;52.286;104.306;2023-06-14T08:32:55;94767.75;;;28.74;19.49
77077;BME280;66003;52.286;104.306;2023-06-14T08:35:22;94763.94;;;28.85;18.94
77077;BME280;66003;52.286;104.306;2023-06-14T08:37:49;94757.94;;;28.90;19.08
77077;BME280;66003;52.286;104.306;2023-06-14T08:40:23;94769.63;;;29.06;19.65
77077;BME280;66003;52.286;104.306;2023-06-14T08:42:54;94760.56;;;28.93;19.21
77077;BME280;66003;52.286;104.306;2023-06-14T08:45:22;94761.56;;;28.99;19.32
77077;BME280;66003;52.286;104.306;2023-06-14T08:47:50;94749.59;;;29.06;18.69
77077;BME280;66003;52.286;104.306;2023-06-14T08:50:26;94725.03;;;28.99;19.71
77077;BME280;66003;52.286;104.306;2023-06-14T08:52:57;94754.91;;;29.13;19.48
77077;BME280;66003;52.286;104.306;2023-06-14T08:55:28;94734.06;;;28.99;19.62
77077;BME280;66003;52.286;104.306;2023-06-14T08:57:57;94723.53;;;29.10;19.18
77077;BME280;66003;52.286;104.306;2023-06-14T09:00:25;94752.31;;;29.48;18.90
77077;BME280;66003;52.286;104.306;2023-06-14T09:02:52;94727.59;;;29.31;18.11
77077;BME280;66003;52.286;104.306;2023-06-14T09:05:24;94745.28;;;29.47;17.82
77077;BME280;66003;52.286;104.306;2023-06-14T09:07:51;94730.31;;;29.48;18.57
77077;BME280;66003;52.286;104.306;2023-06-14T09:10:18;94736.59;;;29.61;18.69
77077;BME280;66003;52.286;104.306;2023-06-14T09:12:46;94726.19;;;29.65;18.82
77077;BME280;66003;52.286;104.306;2023-06-14T09:15:13;94716.97;;;29.59;18.94
77077;BME280;66003;52.286;104.306;2023-06-14T09:17:41;94730.94;;;29.64;19.24
77077;BME280;66003;52.286;104.306;2023-06-14T09:20:08;94675.75;;;29.30;19.09
77077;BME280;66003;52.286;104.306;2023-06-14T09:22:38;94724.78;;;29.73;19.27
77077;BME280;66003;52.286;104.306;2023-06-14T09:25:05;94710.78;;;29.55;19.61
77077;BME280;66003;52.286;104.306;2023-06-14T09:27:32;94717.16;;;29.64;19.68
77077;BME280;66003;52.286;104.306;2023-06-14T09:29:59;94730.50;;;29.78;19.36
77077;BME280;66003;52.286;104.306;2023-06-14T09:32:25;94722.03;;;29.73;19.15
77077;BME280;66003;52.286;104.306;2023-06-14T09:34:51;94711.22;;;29.66;18.83
77077;BME280;66003;52.286;104.306;2023-06-14T09:37:30;94717.06;;;29.80;18.72
77077;BME280;66003;52.286;104.306;2023-06-14T09:39:58;94658.13;;;29.27;18.94
77077;BME280;66003;52.286;104.306;2023-06-14T09:42:25;94708.03;;;29.67;19.24
77077;BME280;66003;52.286;104.306;2023-06-14T09:44:54;94706.28;;;29.73;19.13
77077;BME280;66003;52.286;104.306;2023-06-14T09:47:21;94707.16;;;29.70;19.27
77077;BME280;66003;52.286;104.306;2023-06-14T09:49:50;94690.31;;;29.68;19.80
77077;BME280;66003;52.286;104.306;2023-06-14T09:52:19;94685.13;;;29.58;19.78
77077;BME280;66003;52.286;104.306;2023-06-14T09:54:49;94681.03;;;29.62;21.05
77077;BME280;66003;52.286;104.306;2023-06-14T09:57:17;94681.78;;;29.75;20.85
77077;BME280;66003;52.286;104.306;2023-06-14T09:59:47;94680.81;;;29.69;20.91
77077;BME280;66003;52.286;104.306;2023-06-14T10:02:26;94674.66;;;29.65;21.08
77077;BME280;66003;52.286;104.306;2023-06-14T10:05:05;94675.00;;;29.67;20.87
77077;BME280;66003;52.286;104.306;2023-06-14T10:07:39;94668.31;;;30.03;20.50
77077;BME280;66003;52.286;104.306;2023-06-14T10:10:07;94659.59;;;29.57;20.88
77077;BME280;66003;52.286;104.306;2023-06-14T10:12:33;94644.53;;;29.49;20.82
77077;BME280;66003;52.286;104.306;2023-06-14T10:15:01;94674.75;;;29.74;20.57
77077;BME280;66003;52.286;104.306;2023-06-14T10:23:13;94638.34;;;29.92;20.16
77077;BME280;66003;52.286;104.306;2023-06-14T10:25:42;94651.06;;;29.77;20.50
77077;BME280;66003;52.286;104.306;2023-06-14T10:28:19;94653.47;;;29.75;20.79
77077;BME280;66003;52.286;104.306;2023-06-14T10:33:47;94657.69;;;29.67;21.25
77077;BME280;66003;52.286;104.306;2023-06-14T10:36:25;94670.78;;;29.75;21.48
77077;BME280;66003;52.286;104.306;2023-06-14T10:41:32;94641.28;;;29.63;21.42
77077;BME280;66003;52.286;104.306;2023-06-14T10:46:49;94646.75;;;29.76;20.84
77077;BME280;66003;52.286;104.306;2023-06-14T10:49:19;94614.22;;;29.62;21.22
77077;BME280;66003;52.286;104.306;2023-06-14T10:51:50;94624.22;;;29.68;21.76
77077;BME280;66003;52.286;104.306;2023-06-14T10:54:20;94627.38;;;29.79;21.50
77077;BME280;66003;52.286;104.306;2023-06-14T10:56:52;94604.13;;;29.80;21.36
77077;BME280;66003;52.286;104.306;2023-06-14T10:59:19;94578.22;;;29.43;21.57
77077;BME280;66003;52.286;104.306;2023-06-14T11:04:51;94613.75;;;29.63;21.98
77077;BME280;66003;52.286;104.306;2023-06-14T11:13:02;94602.66;;;29.29;23.16
77077;BME280;66003;52.286;104.306;2023-06-14T11:15:30;94603.22;;;29.24;24.19
77077;BME280;66003;52.286;104.306;2023-06-14T11:17:57;94566.59;;;29.01;23.85
77077;BME280;66003;52.286;104.306;2023-06-14T11:20:29;94604.63;;;29.28;23.66
77077;BME280;66003;52.286;104.306;2023-06-14T11:22:55;94606.91;;;29.68;22.82
77077;BME280;66003;52.286;104.306;2023-06-14T11:25:21;94606.09;;;29.20;24.12
77077;BME280;66003;52.286;104.306;2023-06-14T11:27:49;94572.22;;;28.85;24.81
77077;BME280;66003;52.286;104.306;2023-06-14T11:30:16;94613.47;;;28.98;24.73
77077;BME280;66003;52.286;104.306;2023-06-14T11:32:49;94581.63;;;28.71;25.34
77077;BME280;66003;52.286;104.306;2023-06-14T11:35:19;94614.63;;;28.71;26.09
77077;BME280;66003;52.286;104.306;2023-06-14T11:37:45;94593.34;;;28.47;26.11
77077;BME280;66003;52.286;104.306;2023-06-14T11:40:12;94576.53;;;28.32;26.24
77077;BME280;66003;52.286;104.306;2023-06-14T11:42:40;94577.91;;;28.24;26.57
77077;BME280;66003;52.286;104.306;2023-06-14T11:45:08;94595.00;;;28.15;27.19
77077;BME280;66003;52.286;104.306;2023-06-14T11:47:36;94613.28;;;28.22;26.90
77077;BME280;66003;52.286;104.306;2023-06-14T11:50:04;94590.75;;;27.98;27.14
77077;BME280;66003;52.286;104.306;2023-06-14T11:52:31;94579.31;;;27.87;27.33
77077;BME280;66003;52.286;104.306;2023-06-14T11:54:58;94600.31;;;27.93;27.63
77077;BME280;66003;52.286;104.306;2023-06-14T11:57:25;94601.03;;;27.81;27.87
77077;BME280;66003;52.286;104.306;2023-06-14T11:59:52;94594.63;;;27.72;27.68
77077;BME280;66003;52.286;104.306;2023-06-14T12:02:19;94569.34;;;27.48;28.03
77077;BME280;66003;52.286;104.306;2023-06-14T12:04:48;94588.44;;;27.67;28.43
77077;BME280;66003;52.286;104.306;2023-06-14T12:07:16;94574.72;;;27.51;28.42
77077;BME280;66003;52.286;104.306;2023-06-14T12:12:25;94566.53;;;27.35;29.21
77077;BME280;66003;52.286;104.306;2023-06-14T12:14:52;94573.03;;;27.25;29.27
77077;BME280;66003;52.286;104.306;2023-06-14T12:17:19;94573.72;;;27.13;29.63
77077;BME280;66003;52.286;104.306;2023-06-14T12:19:46;94576.19;;;27.07;30.16
77077;BME280;66003;52.286;104.306;2023-06-14T12:22:13;94575.09;;;27.05;29.68
77077;BME280;66003;52.286;104.306;2023-06-14T12:24:43;94536.66;;;26.72;30.05
77077;BME280;66003;52.286;104.306;2023-06-14T12:27:09;94549.75;;;26.81;30.44
77077;BME280;66003;52.286;104.306;2023-06-14T12:29:37;94550.78;;;26.71;30.80
77077;BME280;66003;52.286;104.306;2023-06-14T12:32:04;94551.19;;;26.53;31.32
77077;BME280;66003;52.286;104.306;2023-06-14T12:34:31;94582.66;;;26.45;31.94
77077;BME280;66003;52.286;104.306;2023-06-14T12:36:57;94579.88;;;26.29;31.83
77077;BME280;66003;52.286;104.306;2023-06-14T12:39:25;94575.91;;;26.10;31.99
77077;BME280;66003;52.286;104.306;2023-06-14T12:41:51;94610.31;;;26.11;32.42
77077;BME280;66003;52.286;104.306;2023-06-14T12:44:17;94589.41;;;25.81;32.69
77077;BME280;66003;52.286;104.306;2023-06-14T12:46:43;94638.41;;;25.95;32.80
77077;BME280;66003;52.286;104.306;2023-06-14T12:49:11;94646.69;;;25.92;32.83
77077;BME280;66003;52.286;104.306;2023-06-14T12:51:39;94627.97;;;25.67;33.03
77077;BME280;66003;52.286;104.306;2023-06-14T12:54:06;94669.94;;;25.57;33.31
77077;BME280;66003;52.286;104.306;2023-06-14T12:56:34;94776.59;;;25.60;33.98
77077;BME280;66003;52.286;104.306;2023-06-14T12:59:07;94820.47;;;25.23;34.02
77077;BME280;66003;52.286;104.306;2023-06-14T13:01:34;94877.59;;;25.47;33.63
77077;BME280;66003;52.286;104.306;2023-06-14T13:04:05;94842.75;;;25.21;34.18
77077;BME280;66003;52.286;104.306;2023-06-14T13:06:32;94905.09;;;25.37;34.04
77077;BME280;66003;52.286;104.306;2023-06-14T13:08:58;94884.03;;;24.96;33.91
77077;BME280;66003;52.286;104.306;2023-06-14T13:11:24;94939.22;;;25.25;34.01
77077;BME280;66003;52.286;104.306;2023-06-14T13:13:51;94938.75;;;24.89;34.03